sensor_id;sensor_type;location;lat;lon;timestamp;P1;durP1;ratioP1;P2;durP2;ratioP2
2998;SDS011;1509;51.964;7.628;2022-12-26T00:01:10;18.53;;;11.00;;
2998;SDS011;1509;51.964;7.628;2022-12-26T00:03:37;18.23;;;11.90;;
2998;SDS011;1509;51.964;7.628;2022-12-26T00:06:03;18.37;;;13.67;;
2998;SDS011;1509;51.964;7.628;2022-12-26T00:08:29;19.80;;;12.43;;
2998;SDS011;1509;51.964;7.628;2022-12-26T00:10:54;17.27;;;12.87;;
2998;SDS011;1509;51.964;7.628;2022-12-26T00:13:20;20.50;;;13.60;;
2998;SDS011;1509;51.964;7.628;2022-12-26T00:15:45;20.20;;;13.87;;
2998;SDS011;1509;51.964;7.628;2022-12-26T00:18:11;23.30;;;13.90;;
2998;SDS011;1509;51.964;7.628;2022-12-26T00:20:37;22.67;;;14.50;;
2998;SDS011;1509;51.964;7.628;2022-12-26T00:23:05;22.20;;;13.40;;
2998;SDS011;1509;51.964;7.628;2022-12-26T00:25:32;21.50;;;14.13;;
2998;SDS011;1509;51.964;7.628;2022-12-26T00:27:58;23.77;;;15.10;;
2998;SDS011;1509;51.964;7.628;2022-12-26T00:30:24;21.40;;;14.13;;
2998;SDS011;1509;51.964;7.628;2022-12-26T00:32:49;19.20;;;13.80;;
2998;SDS011;1509;51.964;7.628;2022-12-26T00:35:15;21.13;;;14.37;;
2998;SDS011;1509;51.964;7.628;2022-12-26T00:37:43;24.43;;;15.90;;
2998;SDS011;1509;51.964;7.628;2022-12-26T00:40:09;21.10;;;14.90;;
2998;SDS011;1509;51.964;7.628;2022-12-26T00:42:35;20.83;;;13.97;;
2998;SDS011;1509;51.964;7.628;2022-12-26T00:45:01;22.77;;;15.27;;
2998;SDS011;1509;51.964;7.628;2022-12-26T00:47:27;24.27;;;14.20;;
2998;SDS011;1509;51.964;7.628;2022-12-26T00:49:52;24.50;;;16.23;;
2998;SDS011;1509;51.964;7.628;2022-12-26T00:52:18;22.80;;;13.97;;
2998;SDS011;1509;51.964;7.628;2022-12-26T00:54:44;21.80;;;14.77;;
2998;SDS011;1509;51.964;7.628;2022-12-26T00:57:09;29.37;;;15.70;;
2998;SDS011;1509;51.964;7.628;2022-12-26T00:59:35;27.47;;;15.47;;
2998;SDS011;1509;51.964;7.628;2022-12-26T01:02:00;27.50;;;15.13;;
2998;SDS011;1509;51.964;7.628;2022-12-26T01:04:46;21.50;;;15.43;;
2998;SDS011;1509;51.964;7.628;2022-12-26T01:07:11;27.60;;;18.20;;
2998;SDS011;1509;51.964;7.628;2022-12-26T01:09:37;25.60;;;16.47;;
2998;SDS011;1509;51.964;7.628;2022-12-26T01:12:03;26.17;;;16.97;;
2998;SDS011;1509;51.964;7.628;2022-12-26T01:14:28;30.37;;;16.87;;
2998;SDS011;1509;51.964;7.628;2022-12-26T01:16:54;31.00;;;19.00;;
2998;SDS011;1509;51.964;7.628;2022-12-26T01:19:20;27.80;;;16.83;;
2998;SDS011;1509;51.964;7.628;2022-12-26T01:21:45;27.43;;;17.50;;
2998;SDS011;1509;51.964;7.628;2022-12-26T01:24:11;30.60;;;18.47;;
2998;SDS011;1509;51.964;7.628;2022-12-26T01:26:37;28.30;;;17.30;;
2998;SDS011;1509;51.964;7.628;2022-12-26T01:29:03;26.87;;;16.70;;
2998;SDS011;1509;51.964;7.628;2022-12-26T01:31:29;28.30;;;17.80;;
2998;SDS011;1509;51.964;7.628;2022-12-26T01:33:54;25.53;;;16.20;;
2998;SDS011;1509;51.964;7.628;2022-12-26T01:36:20;24.87;;;16.50;;
2998;SDS011;1509;51.964;7.628;2022-12-26T01:38:45;29.80;;;17.43;;
2998;SDS011;1509;51.964;7.628;2022-12-26T01:41:11;29.83;;;16.90;;
2998;SDS011;1509;51.964;7.628;2022-12-26T01:43:45;31.40;;;17.50;;
2998;SDS011;1509;51.964;7.628;2022-12-26T01:46:12;27.10;;;16.20;;
2998;SDS011;1509;51.964;7.628;2022-12-26T01:48:40;25.57;;;15.97;;
2998;SDS011;1509;51.964;7.628;2022-12-26T01:51:08;29.17;;;17.27;;
2998;SDS011;1509;51.964;7.628;2022-12-26T01:53:40;29.33;;;16.90;;
2998;SDS011;1509;51.964;7.628;2022-12-26T01:56:17;27.20;;;16.70;;
2998;SDS011;1509;51.964;7.628;2022-12-26T01:58:54;29.33;;;15.20;;
2998;SDS011;1509;51.964;7.628;2022-12-26T02:01:26;23.77;;;15.27;;
2998;SDS011;1509;51.964;7.628;2022-12-26T02:03:55;26.13;;;16.90;;
2998;SDS011;1509;51.964;7.628;2022-12-26T02:06:43;27.87;;;16.13;;
2998;SDS011;1509;51.964;7.628;2022-12-26T02:09:11;24.83;;;14.30;;
2998;SDS011;1509;51.964;7.628;2022-12-26T02:11:38;25.70;;;15.40;;
2998;SDS011;1509;51.964;7.628;2022-12-26T02:14:11;29.97;;;16.00;;
2998;SDS011;1509;51.964;7.628;2022-12-26T02:16:37;27.97;;;16.93;;
2998;SDS011;1509;51.964;7.628;2022-12-26T02:19:05;27.13;;;17.07;;
2998;SDS011;1509;51.964;7.628;2022-12-26T02:22:17;32.50;;;18.00;;
2998;SDS011;1509;51.964;7.628;2022-12-26T02:25:06;25.07;;;17.60;;
2998;SDS011;1509;51.964;7.628;2022-12-26T02:27:41;28.63;;;18.33;;
2998;SDS011;1509;51.964;7.628;2022-12-26T02:35:48;29.90;;;18.23;;
2998;SDS011;1509;51.964;7.628;2022-12-26T02:38:54;32.07;;;18.10;;
2998;SDS011;1509;51.964;7.628;2022-12-26T02:41:48;29.17;;;17.53;;
2998;SDS011;1509;51.964;7.628;2022-12-26T02:44:42;30.27;;;18.50;;
2998;SDS011;1509;51.964;7.628;2022-12-26T02:50:32;32.97;;;16.97;;
2998;SDS011;1509;51.964;7.628;2022-12-26T02:57:21;35.30;;;19.90;;
2998;SDS011;1509;51.964;7.628;2022-12-26T03:00:12;33.27;;;19.17;;
2998;SDS011;1509;51.964;7.628;2022-12-26T03:03:04;34.27;;;18.37;;
2998;SDS011;1509;51.964;7.628;2022-12-26T03:06:01;36.43;;;20.07;;
2998;SDS011;1509;51.964;7.628;2022-12-26T03:08:53;37.83;;;20.53;;
2998;SDS011;1509;51.964;7.628;2022-12-26T03:11:40;35.17;;;21.03;;
2998;SDS011;1509;51.964;7.628;2022-12-26T03:14:30;36.60;;;19.80;;
2998;SDS011;1509;51.964;7.628;2022-12-26T03:17:02;34.50;;;19.20;;
2998;SDS011;1509;51.964;7.628;2022-12-26T03:19:46;36.17;;;19.50;;
2998;SDS011;1509;51.964;7.628;2022-12-26T03:22:34;33.63;;;18.50;;
2998;SDS011;1509;51.964;7.628;2022-12-26T03:25:56;34.93;;;18.63;;
2998;SDS011;1509;51.964;7.628;2022-12-26T03:28:32;39.60;;;19.37;;
2998;SDS011;1509;51.964;7.628;2022-12-26T03:30:58;37.87;;;19.77;;
2998;SDS011;1509;51.964;7.628;2022-12-26T03:33:30;37.87;;;19.63;;
2998;SDS011;1509;51.964;7.628;2022-12-26T03:36:31;33.30;;;18.90;;
2998;SDS011;1509;51.964;7.628;2022-12-26T03:42:36;29.40;;;18.10;;
2998;SDS011;1509;51.964;7.628;2022-12-26T03:45:51;36.33;;;18.73;;
2998;SDS011;1509;51.964;7.628;2022-12-26T03:54:29;30.97;;;16.40;;
2998;SDS011;1509;51.964;7.628;2022-12-26T03:57:20;30.47;;;16.67;;
2998;SDS011;1509;51.964;7.628;2022-12-26T04:00:10;34.47;;;17.33;;
2998;SDS011;1509;51.964;7.628;2022-12-26T04:03:02;30.40;;;16.10;;
2998;SDS011;1509;51.964;7.628;2022-12-26T04:05:51;31.37;;;16.70;;
2998;SDS011;1509;51.964;7.628;2022-12-26T04:08:42;32.00;;;17.33;;
2998;SDS011;1509;51.964;7.628;2022-12-26T04:11:31;26.00;;;15.93;;
2998;SDS011;1509;51.964;7.628;2022-12-26T04:14:33;31.37;;;17.53;;
2998;SDS011;1509;51.964;7.628;2022-12-26T04:17:23;32.17;;;18.30;;
2998;SDS011;1509;51.964;7.628;2022-12-26T04:21:29;31.70;;;17.03;;
2998;SDS011;1509;51.964;7.628;2022-12-26T04:23:56;34.00;;;17.80;;
2998;SDS011;1509;51.964;7.628;2022-12-26T04:26:44;28.40;;;16.17;;
2998;SDS011;1509;51.964;7.628;2022-12-26T04:29:33;29.83;;;17.90;;
2998;SDS011;1509;51.964;7.628;2022-12-26T04:32:27;37.00;;;19.40;;
2998;SDS011;1509;51.964;7.628;2022-12-26T04:38:35;41.63;;;21.03;;
2998;SDS011;1509;51.964;7.628;2022-12-26T04:41:24;36.57;;;20.43;;
2998;SDS011;1509;51.964;7.628;2022-12-26T04:44:11;37.30;;;21.13;;
2998;SDS011;1509;51.964;7.628;2022-12-26T04:46:39;36.80;;;18.77;;
2998;SDS011;1509;51.964;7.628;2022-12-26T04:49:09;36.47;;;19.70;;
2998;SDS011;1509;51.964;7.628;2022-12-26T04:51:54;38.33;;;19.67;;
2998;SDS011;1509;51.964;7.628;2022-12-26T04:54:21;36.63;;;19.10;;
2998;SDS011;1509;51.964;7.628;2022-12-26T04:56:46;38.80;;;19.13;;
2998;SDS011;1509;51.964;7.628;2022-12-26T04:59:13;35.77;;;20.07;;
2998;SDS011;1509;51.964;7.628;2022-12-26T05:01:39;29.93;;;16.93;;
2998;SDS011;1509;51.964;7.628;2022-12-26T05:04:23;37.63;;;19.50;;
2998;SDS011;1509;51.964;7.628;2022-12-26T05:07:10;33.23;;;17.50;;
2998;SDS011;1509;51.964;7.628;2022-12-26T05:09:58;37.40;;;17.83;;
2998;SDS011;1509;51.964;7.628;2022-12-26T05:12:25;32.30;;;17.57;;
2998;SDS011;1509;51.964;7.628;2022-12-26T05:14:50;34.10;;;16.67;;
2998;SDS011;1509;51.964;7.628;2022-12-26T05:17:16;39.73;;;20.27;;
2998;SDS011;1509;51.964;7.628;2022-12-26T05:20:00;31.97;;;16.80;;
2998;SDS011;1509;51.964;7.628;2022-12-26T05:22:45;33.43;;;17.67;;
2998;SDS011;1509;51.964;7.628;2022-12-26T05:25:31;31.37;;;16.97;;
2998;SDS011;1509;51.964;7.628;2022-12-26T05:28:22;28.07;;;16.03;;
2998;SDS011;1509;51.964;7.628;2022-12-26T05:31:06;34.00;;;17.00;;
2998;SDS011;1509;51.964;7.628;2022-12-26T05:33:33;30.70;;;15.80;;
2998;SDS011;1509;51.964;7.628;2022-12-26T05:36:18;26.47;;;15.30;;
2998;SDS011;1509;51.964;7.628;2022-12-26T05:38:45;28.37;;;14.97;;
2998;SDS011;1509;51.964;7.628;2022-12-26T05:41:12;33.03;;;16.93;;
2998;SDS011;1509;51.964;7.628;2022-12-26T05:43:38;29.50;;;14.57;;
2998;SDS011;1509;51.964;7.628;2022-12-26T05:46:04;28.50;;;15.63;;
2998;SDS011;1509;51.964;7.628;2022-12-26T05:48:29;26.70;;;15.00;;
2998;SDS011;1509;51.964;7.628;2022-12-26T05:50:59;26.10;;;15.17;;
2998;SDS011;1509;51.964;7.628;2022-12-26T05:53:25;27.33;;;15.00;;
2998;SDS011;1509;51.964;7.628;2022-12-26T05:55:51;24.63;;;15.20;;
2998;SDS011;1509;51.964;7.628;2022-12-26T05:58:17;28.70;;;16.13;;
2998;SDS011;1509;51.964;7.628;2022-12-26T06:00:43;30.37;;;15.30;;
2998;SDS011;1509;51.964;7.628;2022-12-26T06:03:08;23.23;;;13.47;;
2998;SDS011;1509;51.964;7.628;2022-12-26T06:05:34;22.07;;;13.07;;
2998;SDS011;1509;51.964;7.628;2022-12-26T06:07:59;21.80;;;12.57;;
2998;SDS011;1509;51.964;7.628;2022-12-26T06:10:25;22.83;;;14.60;;
2998;SDS011;1509;51.964;7.628;2022-12-26T06:12:53;23.57;;;13.40;;
2998;SDS011;1509;51.964;7.628;2022-12-26T06:15:20;26.33;;;13.87;;
2998;SDS011;1509;51.964;7.628;2022-12-26T06:17:46;22.30;;;12.50;;
2998;SDS011;1509;51.964;7.628;2022-12-26T06:20:11;17.30;;;10.60;;
2998;SDS011;1509;51.964;7.628;2022-12-26T06:22:37;19.60;;;11.97;;
2998;SDS011;1509;51.964;7.628;2022-12-26T06:25:02;24.67;;;11.20;;
2998;SDS011;1509;51.964;7.628;2022-12-26T06:27:28;19.13;;;11.83;;
2998;SDS011;1509;51.964;7.628;2022-12-26T06:29:54;17.93;;;11.10;;
2998;SDS011;1509;51.964;7.628;2022-12-26T06:32:19;16.20;;;10.50;;
2998;SDS011;1509;51.964;7.628;2022-12-26T06:34:46;18.47;;;11.23;;
2998;SDS011;1509;51.964;7.628;2022-12-26T06:37:12;15.97;;;9.37;;
2998;SDS011;1509;51.964;7.628;2022-12-26T06:39:37;14.07;;;9.63;;
2998;SDS011;1509;51.964;7.628;2022-12-26T06:42:03;15.73;;;10.60;;
2998;SDS011;1509;51.964;7.628;2022-12-26T06:44:29;18.63;;;10.67;;
2998;SDS011;1509;51.964;7.628;2022-12-26T06:46:55;17.40;;;10.53;;
2998;SDS011;1509;51.964;7.628;2022-12-26T06:49:20;13.97;;;9.33;;
2998;SDS011;1509;51.964;7.628;2022-12-26T06:51:46;11.80;;;8.60;;
2998;SDS011;1509;51.964;7.628;2022-12-26T06:54:11;12.00;;;8.40;;
2998;SDS011;1509;51.964;7.628;2022-12-26T06:56:37;15.77;;;9.20;;
2998;SDS011;1509;51.964;7.628;2022-12-26T06:59:04;14.33;;;9.90;;
2998;SDS011;1509;51.964;7.628;2022-12-26T07:01:31;11.40;;;7.67;;
2998;SDS011;1509;51.964;7.628;2022-12-26T07:03:58;13.03;;;8.37;;
2998;SDS011;1509;51.964;7.628;2022-12-26T07:06:28;11.30;;;8.40;;
2998;SDS011;1509;51.964;7.628;2022-12-26T07:09:05;13.37;;;8.70;;
2998;SDS011;1509;51.964;7.628;2022-12-26T07:11:34;12.70;;;8.53;;
2998;SDS011;1509;51.964;7.628;2022-12-26T07:14:02;11.50;;;7.63;;
2998;SDS011;1509;51.964;7.628;2022-12-26T07:16:28;12.87;;;7.67;;
2998;SDS011;1509;51.964;7.628;2022-12-26T07:18:54;12.73;;;7.97;;
2998;SDS011;1509;51.964;7.628;2022-12-26T07:21:21;12.07;;;7.87;;
2998;SDS011;1509;51.964;7.628;2022-12-26T07:23:47;11.90;;;7.13;;
2998;SDS011;1509;51.964;7.628;2022-12-26T07:26:13;11.30;;;7.33;;
2998;SDS011;1509;51.964;7.628;2022-12-26T07:28:39;13.20;;;9.20;;
2998;SDS011;1509;51.964;7.628;2022-12-26T07:31:05;10.07;;;6.67;;
2998;SDS011;1509;51.964;7.628;2022-12-26T07:33:31;12.73;;;9.33;;
2998;SDS011;1509;51.964;7.628;2022-12-26T07:36:00;10.47;;;6.50;;
2998;SDS011;1509;51.964;7.628;2022-12-26T07:38:27;9.70;;;7.67;;
2998;SDS011;1509;51.964;7.628;2022-12-26T07:40:56;10.17;;;7.77;;
2998;SDS011;1509;51.964;7.628;2022-12-26T07:43:22;11.43;;;7.57;;
2998;SDS011;1509;51.964;7.628;2022-12-26T07:45:49;11.60;;;7.30;;
2998;SDS011;1509;51.964;7.628;2022-12-26T07:48:21;11.83;;;8.70;;
2998;SDS011;1509;51.964;7.628;2022-12-26T07:50:47;11.60;;;7.20;;
2998;SDS011;1509;51.964;7.628;2022-12-26T07:53:13;16.20;;;8.20;;
2998;SDS011;1509;51.964;7.628;2022-12-26T07:55:39;12.57;;;8.80;;
2998;SDS011;1509;51.964;7.628;2022-12-26T07:58:05;13.40;;;9.00;;
2998;SDS011;1509;51.964;7.628;2022-12-26T08:00:30;12.10;;;7.50;;
2998;SDS011;1509;51.964;7.628;2022-12-26T08:02:56;13.80;;;8.27;;
2998;SDS011;1509;51.964;7.628;2022-12-26T08:05:22;15.47;;;9.40;;
2998;SDS011;1509;51.964;7.628;2022-12-26T08:07:48;14.73;;;8.10;;
2998;SDS011;1509;51.964;7.628;2022-12-26T08:10:14;15.47;;;7.90;;
2998;SDS011;1509;51.964;7.628;2022-12-26T08:12:40;17.10;;;10.87;;
2998;SDS011;1509;51.964;7.628;2022-12-26T08:15:06;15.87;;;9.23;;
2998;SDS011;1509;51.964;7.628;2022-12-26T08:17:37;16.30;;;8.70;;
2998;SDS011;1509;51.964;7.628;2022-12-26T08:20:02;20.33;;;9.80;;
2998;SDS011;1509;51.964;7.628;2022-12-26T08:22:29;16.43;;;8.47;;
2998;SDS011;1509;51.964;7.628;2022-12-26T08:24:54;13.10;;;8.27;;
2998;SDS011;1509;51.964;7.628;2022-12-26T08:27:20;14.53;;;9.83;;
2998;SDS011;1509;51.964;7.628;2022-12-26T08:29:46;15.00;;;8.37;;
2998;SDS011;1509;51.964;7.628;2022-12-26T08:32:12;11.43;;;7.27;;
2998;SDS011;1509;51.964;7.628;2022-12-26T08:34:37;10.47;;;7.23;;
2998;SDS011;1509;51.964;7.628;2022-12-26T08:37:03;8.20;;;6.33;;
2998;SDS011;1509;51.964;7.628;2022-12-26T08:39:28;10.30;;;7.30;;
2998;SDS011;1509;51.964;7.628;2022-12-26T08:41:54;9.77;;;6.50;;
2998;SDS011;1509;51.964;7.628;2022-12-26T08:44:20;12.00;;;6.37;;
2998;SDS011;1509;51.964;7.628;2022-12-26T08:46:45;8.70;;;4.77;;
2998;SDS011;1509;51.964;7.628;2022-12-26T08:49:11;9.50;;;5.80;;
2998;SDS011;1509;51.964;7.628;2022-12-26T08:51:36;12.20;;;7.10;;
2998;SDS011;1509;51.964;7.628;2022-12-26T08:54:02;9.70;;;6.10;;
2998;SDS011;1509;51.964;7.628;2022-12-26T08:56:28;6.80;;;4.30;;
2998;SDS011;1509;51.964;7.628;2022-12-26T08:58:54;8.33;;;5.37;;
2998;SDS011;1509;51.964;7.628;2022-12-26T09:01:24;6.83;;;5.00;;
2998;SDS011;1509;51.964;7.628;2022-12-26T09:03:52;14.67;;;4.83;;
2998;SDS011;1509;51.964;7.628;2022-12-26T09:06:19;7.13;;;4.30;;
2998;SDS011;1509;51.964;7.628;2022-12-26T09:08:44;6.83;;;4.60;;
2998;SDS011;1509;51.964;7.628;2022-12-26T09:11:13;5.77;;;4.07;;
2998;SDS011;1509;51.964;7.628;2022-12-26T09:13:41;7.73;;;3.97;;
2998;SDS011;1509;51.964;7.628;2022-12-26T09:16:09;6.90;;;4.00;;
2998;SDS011;1509;51.964;7.628;2022-12-26T09:18:38;4.17;;;3.20;;
2998;SDS011;1509;51.964;7.628;2022-12-26T09:21:05;6.30;;;4.47;;
2998;SDS011;1509;51.964;7.628;2022-12-26T09:23:32;5.43;;;3.60;;
2998;SDS011;1509;51.964;7.628;2022-12-26T09:26:18;4.57;;;3.50;;
2998;SDS011;1509;51.964;7.628;2022-12-26T09:28:44;5.13;;;3.17;;
2998;SDS011;1509;51.964;7.628;2022-12-26T09:31:18;6.97;;;3.27;;
2998;SDS011;1509;51.964;7.628;2022-12-26T09:33:46;4.67;;;3.27;;
2998;SDS011;1509;51.964;7.628;2022-12-26T09:36:13;5.13;;;3.37;;
2998;SDS011;1509;51.964;7.628;2022-12-26T09:38:44;6.20;;;3.33;;
2998;SDS011;1509;51.964;7.628;2022-12-26T09:46:32;4.67;;;2.80;;
2998;SDS011;1509;51.964;7.628;2022-12-26T09:49:07;3.70;;;2.60;;
2998;SDS011;1509;51.964;7.628;2022-12-26T09:51:38;3.90;;;2.80;;
2998;SDS011;1509;51.964;7.628;2022-12-26T09:54:07;3.50;;;2.43;;
2998;SDS011;1509;51.964;7.628;2022-12-26T09:56:50;5.30;;;2.60;;
2998;SDS011;1509;51.964;7.628;2022-12-26T09:59:18;7.73;;;2.77;;
2998;SDS011;1509;51.964;7.628;2022-12-26T10:01:48;3.53;;;2.70;;
2998;SDS011;1509;51.964;7.628;2022-12-26T10:04:20;5.13;;;2.70;;
2998;SDS011;1509;51.964;7.628;2022-12-26T10:09:54;4.40;;;2.70;;
2998;SDS011;1509;51.964;7.628;2022-12-26T10:18:03;5.63;;;2.50;;
2998;SDS011;1509;51.964;7.628;2022-12-26T10:23:43;5.10;;;2.27;;
2998;SDS011;1509;51.964;7.628;2022-12-26T10:26:19;3.30;;;2.50;;
2998;SDS011;1509;51.964;7.628;2022-12-26T10:34:09;4.83;;;2.23;;
2998;SDS011;1509;51.964;7.628;2022-12-26T10:36:40;3.20;;;2.00;;
2998;SDS011;1509;51.964;7.628;2022-12-26T10:39:22;3.33;;;2.10;;
2998;SDS011;1509;51.964;7.628;2022-12-26T10:42:02;4.17;;;2.10;;
2998;SDS011;1509;51.964;7.628;2022-12-26T10:44:45;2.70;;;2.00;;
2998;SDS011;1509;51.964;7.628;2022-12-26T10:47:27;3.40;;;2.40;;
2998;SDS011;1509;51.964;7.628;2022-12-26T10:50:00;4.73;;;2.13;;
2998;SDS011;1509;51.964;7.628;2022-12-26T10:52:28;4.10;;;2.30;;
2998;SDS011;1509;51.964;7.628;2022-12-26T10:54:57;5.73;;;2.00;;
2998;SDS011;1509;51.964;7.628;2022-12-26T10:57:25;3.47;;;1.83;;
2998;SDS011;1509;51.964;7.628;2022-12-26T10:59:53;2.37;;;1.90;;
2998;SDS011;1509;51.964;7.628;2022-12-26T11:02:26;2.50;;;1.90;;
2998;SDS011;1509;51.964;7.628;2022-12-26T11:07:26;4.63;;;2.20;;
2998;SDS011;1509;51.964;7.628;2022-12-26T11:09:55;7.43;;;2.30;;
2998;SDS011;1509;51.964;7.628;2022-12-26T11:12:28;4.60;;;2.13;;
2998;SDS011;1509;51.964;7.628;2022-12-26T11:15:03;5.33;;;1.90;;
2998;SDS011;1509;51.964;7.628;2022-12-26T11:17:33;3.80;;;2.23;;
2998;SDS011;1509;51.964;7.628;2022-12-26T11:20:09;9.07;;;2.20;;
2998;SDS011;1509;51.964;7.628;2022-12-26T11:22:38;4.97;;;2.20;;
2998;SDS011;1509;51.964;7.628;2022-12-26T11:27:57;4.27;;;1.77;;
2998;SDS011;1509;51.964;7.628;2022-12-26T11:30:25;2.70;;;1.70;;
2998;SDS011;1509;51.964;7.628;2022-12-26T11:35:47;4.10;;;1.80;;
2998;SDS011;1509;51.964;7.628;2022-12-26T11:38:22;3.40;;;1.90;;
2998;SDS011;1509;51.964;7.628;2022-12-26T11:41:04;3.93;;;2.47;;
2998;SDS011;1509;51.964;7.628;2022-12-26T11:43:54;3.10;;;2.17;;
2998;SDS011;1509;51.964;7.628;2022-12-26T11:46:30;3.47;;;1.93;;
2998;SDS011;1509;51.964;7.628;2022-12-26T11:49:32;2.90;;;2.00;;
2998;SDS011;1509;51.964;7.628;2022-12-26T11:54:57;9.27;;;2.27;;
2998;SDS011;1509;51.964;7.628;2022-12-26T11:57:29;5.27;;;2.40;;
2998;SDS011;1509;51.964;7.628;2022-12-26T12:00:16;3.27;;;2.10;;
2998;SDS011;1509;51.964;7.628;2022-12-26T12:02:45;2.90;;;1.90;;
2998;SDS011;1509;51.964;7.628;2022-12-26T12:05:13;3.90;;;1.80;;
2998;SDS011;1509;51.964;7.628;2022-12-26T12:08:04;5.27;;;2.50;;
2998;SDS011;1509;51.964;7.628;2022-12-26T12:21:58;8.97;;;2.50;;
2998;SDS011;1509;51.964;7.628;2022-12-26T12:27:32;7.83;;;2.90;;
2998;SDS011;1509;51.964;7.628;2022-12-26T12:36:00;3.63;;;2.37;;
2998;SDS011;1509;51.964;7.628;2022-12-26T12:41:27;9.03;;;2.97;;
2998;SDS011;1509;51.964;7.628;2022-12-26T12:47:53;4.80;;;3.17;;
2998;SDS011;1509;51.964;7.628;2022-12-26T12:52:59;8.57;;;3.53;;
2998;SDS011;1509;51.964;7.628;2022-12-26T12:58:36;10.43;;;4.50;;
2998;SDS011;1509;51.964;7.628;2022-12-26T13:01:16;10.93;;;4.40;;
2998;SDS011;1509;51.964;7.628;2022-12-26T13:03:49;10.00;;;3.93;;
2998;SDS011;1509;51.964;7.628;2022-12-26T13:06:22;10.43;;;3.50;;
2998;SDS011;1509;51.964;7.628;2022-12-26T13:08:54;15.47;;;4.03;;
2998;SDS011;1509;51.964;7.628;2022-12-26T13:11:52;8.10;;;3.60;;
2998;SDS011;1509;51.964;7.628;2022-12-26T13:14:42;10.17;;;2.90;;
2998;SDS011;1509;51.964;7.628;2022-12-26T13:17:36;8.83;;;3.87;;
2998;SDS011;1509;51.964;7.628;2022-12-26T13:20:13;8.93;;;3.10;;
2998;SDS011;1509;51.964;7.628;2022-12-26T13:22:50;5.73;;;2.27;;
2998;SDS011;1509;51.964;7.628;2022-12-26T13:25:44;6.30;;;2.23;;
2998;SDS011;1509;51.964;7.628;2022-12-26T13:28:21;5.23;;;2.80;;
2998;SDS011;1509;51.964;7.628;2022-12-26T13:30:54;9.00;;;2.13;;
2998;SDS011;1509;51.964;7.628;2022-12-26T13:33:20;4.10;;;2.40;;
2998;SDS011;1509;51.964;7.628;2022-12-26T13:38:20;4.67;;;2.00;;
2998;SDS011;1509;51.964;7.628;2022-12-26T13:40:52;14.17;;;2.60;;
2998;SDS011;1509;51.964;7.628;2022-12-26T13:43:21;8.20;;;2.10;;
2998;SDS011;1509;51.964;7.628;2022-12-26T13:49:36;4.70;;;2.27;;
2998;SDS011;1509;51.964;7.628;2022-12-26T14:00:21;5.67;;;2.97;;
2998;SDS011;1509;51.964;7.628;2022-12-26T14:05:54;4.07;;;2.10;;
2998;SDS011;1509;51.964;7.628;2022-12-26T14:20:40;10.40;;;3.43;;
2998;SDS011;1509;51.964;7.628;2022-12-26T14:23:27;5.67;;;3.70;;
2998;SDS011;1509;51.964;7.628;2022-12-26T14:28:59;11.27;;;3.40;;
2998;SDS011;1509;51.964;7.628;2022-12-26T14:37:28;5.70;;;3.30;;
2998;SDS011;1509;51.964;7.628;2022-12-26T14:50:51;7.70;;;3.90;;
2998;SDS011;1509;51.964;7.628;2022-12-26T15:06:28;6.10;;;3.10;;
2998;SDS011;1509;51.964;7.628;2022-12-26T15:17:38;4.70;;;3.30;;
2998;SDS011;1509;51.964;7.628;2022-12-26T15:20:26;10.77;;;4.20;;
2998;SDS011;1509;51.964;7.628;2022-12-26T15:31:18;8.77;;;3.10;;
2998;SDS011;1509;51.964;7.628;2022-12-26T15:39:19;7.37;;;2.50;;
2998;SDS011;1509;51.964;7.628;2022-12-26T15:42:00;7.03;;;2.87;;
2998;SDS011;1509;51.964;7.628;2022-12-26T15:44:44;5.37;;;2.20;;
2998;SDS011;1509;51.964;7.628;2022-12-26T15:47:22;8.97;;;3.13;;
2998;SDS011;1509;51.964;7.628;2022-12-26T15:58:34;6.87;;;3.00;;
2998;SDS011;1509;51.964;7.628;2022-12-26T16:01:09;7.97;;;3.20;;
2998;SDS011;1509;51.964;7.628;2022-12-26T16:19:38;7.17;;;3.00;;
2998;SDS011;1509;51.964;7.628;2022-12-26T16:22:09;5.03;;;2.73;;
2998;SDS011;1509;51.964;7.628;2022-12-26T16:24:59;4.73;;;2.80;;
2998;SDS011;1509;51.964;7.628;2022-12-26T16:27:25;8.80;;;3.40;;
2998;SDS011;1509;51.964;7.628;2022-12-26T16:29:53;5.97;;;2.70;;
2998;SDS011;1509;51.964;7.628;2022-12-26T16:32:26;18.23;;;3.00;;
2998;SDS011;1509;51.964;7.628;2022-12-26T16:34:56;7.77;;;2.70;;
2998;SDS011;1509;51.964;7.628;2022-12-26T16:37:23;6.80;;;2.73;;
2998;SDS011;1509;51.964;7.628;2022-12-26T16:40:04;4.47;;;2.30;;
2998;SDS011;1509;51.964;7.628;2022-12-26T16:42:30;5.07;;;2.07;;
2998;SDS011;1509;51.964;7.628;2022-12-26T16:44:56;5.27;;;2.33;;
2998;SDS011;1509;51.964;7.628;2022-12-26T16:47:29;6.27;;;2.30;;
2998;SDS011;1509;51.964;7.628;2022-12-26T16:49:56;11.83;;;2.70;;
2998;SDS011;1509;51.964;7.628;2022-12-26T16:52:34;5.20;;;2.43;;
2998;SDS011;1509;51.964;7.628;2022-12-26T16:57:46;5.27;;;2.10;;
2998;SDS011;1509;51.964;7.628;2022-12-26T17:00:16;3.50;;;2.23;;
2998;SDS011;1509;51.964;7.628;2022-12-26T17:02:44;7.37;;;2.57;;
2998;SDS011;1509;51.964;7.628;2022-12-26T17:05:16;7.80;;;2.93;;
2998;SDS011;1509;51.964;7.628;2022-12-26T17:07:53;4.83;;;2.50;;
2998;SDS011;1509;51.964;7.628;2022-12-26T17:10:23;2.60;;;1.80;;
2998;SDS011;1509;51.964;7.628;2022-12-26T17:12:51;8.47;;;2.57;;
2998;SDS011;1509;51.964;7.628;2022-12-26T17:15:26;6.17;;;2.30;;
2998;SDS011;1509;51.964;7.628;2022-12-26T17:17:54;6.40;;;2.13;;
2998;SDS011;1509;51.964;7.628;2022-12-26T17:22:51;9.80;;;2.40;;
2998;SDS011;1509;51.964;7.628;2022-12-26T17:30:46;3.70;;;1.90;;
2998;SDS011;1509;51.964;7.628;2022-12-26T17:35:47;4.43;;;1.87;;
2998;SDS011;1509;51.964;7.628;2022-12-26T17:38:20;5.10;;;2.57;;
2998;SDS011;1509;51.964;7.628;2022-12-26T17:40:49;12.33;;;2.80;;
2998;SDS011;1509;51.964;7.628;2022-12-26T17:43:23;12.03;;;3.37;;
2998;SDS011;1509;51.964;7.628;2022-12-26T17:45:53;4.93;;;3.27;;
2998;SDS011;1509;51.964;7.628;2022-12-26T17:48:18;4.80;;;2.60;;
2998;SDS011;1509;51.964;7.628;2022-12-26T17:50:46;4.37;;;2.43;;
2998;SDS011;1509;51.964;7.628;2022-12-26T17:53:26;4.70;;;2.67;;
2998;SDS011;1509;51.964;7.628;2022-12-26T17:55:55;7.00;;;3.00;;
2998;SDS011;1509;51.964;7.628;2022-12-26T17:58:26;5.80;;;2.80;;
2998;SDS011;1509;51.964;7.628;2022-12-26T18:00:52;8.17;;;2.73;;
2998;SDS011;1509;51.964;7.628;2022-12-26T18:03:19;4.30;;;2.47;;
2998;SDS011;1509;51.964;7.628;2022-12-26T18:05:45;6.30;;;3.03;;
2998;SDS011;1509;51.964;7.628;2022-12-26T18:08:18;6.83;;;3.30;;
2998;SDS011;1509;51.964;7.628;2022-12-26T18:10:45;6.90;;;2.80;;
2998;SDS011;1509;51.964;7.628;2022-12-26T18:13:11;4.63;;;2.63;;
2998;SDS011;1509;51.964;7.628;2022-12-26T18:15:39;7.63;;;2.90;;
2998;SDS011;1509;51.964;7.628;2022-12-26T18:18:07;4.87;;;2.93;;
2998;SDS011;1509;51.964;7.628;2022-12-26T18:20:52;6.37;;;2.70;;
2998;SDS011;1509;51.964;7.628;2022-12-26T18:23:18;6.10;;;3.40;;
2998;SDS011;1509;51.964;7.628;2022-12-26T18:25:44;3.90;;;2.50;;
2998;SDS011;1509;51.964;7.628;2022-12-26T18:28:11;8.53;;;3.30;;
2998;SDS011;1509;51.964;7.628;2022-12-26T18:30:38;6.43;;;3.17;;
2998;SDS011;1509;51.964;7.628;2022-12-26T18:33:08;5.20;;;2.97;;
2998;SDS011;1509;51.964;7.628;2022-12-26T18:35:35;8.93;;;3.30;;
2998;SDS011;1509;51.964;7.628;2022-12-26T18:38:03;5.60;;;3.30;;
2998;SDS011;1509;51.964;7.628;2022-12-26T18:40:33;9.87;;;3.50;;
2998;SDS011;1509;51.964;7.628;2022-12-26T18:43:04;4.00;;;2.53;;
2998;SDS011;1509;51.964;7.628;2022-12-26T18:45:31;7.70;;;3.40;;
2998;SDS011;1509;51.964;7.628;2022-12-26T18:47:58;9.03;;;3.23;;
2998;SDS011;1509;51.964;7.628;2022-12-26T18:50:24;6.17;;;2.83;;
2998;SDS011;1509;51.964;7.628;2022-12-26T18:52:51;3.97;;;3.23;;
2998;SDS011;1509;51.964;7.628;2022-12-26T18:55:17;5.27;;;3.53;;
2998;SDS011;1509;51.964;7.628;2022-12-26T18:57:43;6.17;;;2.90;;
2998;SDS011;1509;51.964;7.628;2022-12-26T19:00:11;6.60;;;3.37;;
2998;SDS011;1509;51.964;7.628;2022-12-26T19:02:38;7.83;;;3.57;;
2998;SDS011;1509;51.964;7.628;2022-12-26T19:05:03;12.27;;;3.50;;
2998;SDS011;1509;51.964;7.628;2022-12-26T19:07:29;10.80;;;4.53;;
2998;SDS011;1509;51.964;7.628;2022-12-26T19:09:55;10.00;;;3.20;;